createdAt,value
2023-01-04T00:01:42.755Z,96.44
2023-01-04T00:04:09.714Z,96.22
2023-01-04T00:06:36.266Z,96.34
2023-01-04T00:09:02.810Z,96.21
2023-01-04T00:11:29.343Z,96.39
2023-01-04T00:13:57.183Z,96.56
2023-01-04T00:16:24.651Z,96.33
2023-01-04T00:18:51.708Z,96.32
2023-01-04T00:21:19.415Z,96.25
2023-01-04T00:23:47.761Z,96.07
2023-01-04T00:26:15.690Z,96.27
2023-01-04T00:28:44.813Z,96.27
2023-01-04T00:31:15.790Z,96.09
2023-01-04T00:33:42.676Z,96.14
2023-01-04T00:36:10.501Z,96.16
2023-01-04T00:38:37.401Z,96.22
2023-01-04T00:41:04.410Z,96.07
2023-01-04T00:43:30.937Z,95.95
2023-01-04T00:45:57.639Z,96.20
2023-01-04T00:48:24.597Z,96.24
2023-01-04T00:50:51.290Z,96.10
2023-01-04T00:53:18.128Z,96.25
2023-01-04T00:55:44.843Z,96.38
2023-01-04T00:58:14.372Z,96.56
2023-01-04T01:03:21.763Z,96.42
2023-01-04T01:05:48.377Z,96.73
2023-01-04T01:08:26.702Z,96.73
2023-01-04T01:10:53.928Z,96.50
2023-01-04T01:13:21.352Z,96.41
2023-01-04T01:15:47.978Z,96.49
2023-01-04T01:18:14.662Z,96.45
2023-01-04T01:20:44.851Z,96.47
2023-01-04T01:23:14.755Z,96.46
2023-01-04T01:25:41.776Z,96.42
2023-01-04T01:28:08.740Z,96.42
2023-01-04T01:30:35.211Z,96.28
2023-01-04T01:33:01.790Z,96.21
2023-01-04T01:35:28.230Z,96.25
2023-01-04T01:37:54.753Z,96.30
2023-01-04T01:40:21.262Z,96.09
2023-01-04T01:42:47.880Z,96.11
2023-01-04T01:45:23.437Z,96.41
2023-01-04T01:47:50.656Z,96.52
2023-01-04T01:50:20.586Z,96.57
2023-01-04T01:52:47.978Z,96.37
2023-01-04T01:55:16.008Z,96.76
2023-01-04T01:57:43.077Z,96.81
2023-01-04T02:00:12.410Z,96.80
2023-01-04T02:02:44.617Z,96.80
2023-01-04T02:05:11.333Z,96.70
2023-01-04T02:07:38.175Z,96.61
2023-01-04T02:10:05.145Z,96.75
2023-01-04T02:12:31.631Z,96.92
2023-01-04T02:14:58.081Z,96.89
2023-01-04T02:17:27.371Z,96.60
2023-01-04T02:20:02.724Z,96.47
2023-01-04T02:22:47.713Z,96.37
2023-01-04T02:25:14.175Z,96.21
2023-01-04T02:27:55.405Z,96.24
2023-01-04T02:30:40.408Z,96.36
2023-01-04T02:33:06.847Z,96.43
2023-01-04T02:35:36.074Z,96.55
2023-01-04T02:38:21.202Z,96.69
2023-01-04T02:41:03.188Z,96.71
2023-01-04T02:43:57.328Z,96.73
2023-01-04T02:46:26.930Z,96.81
2023-01-04T02:49:11.971Z,96.79
2023-01-04T02:51:38.883Z,96.92
2023-01-04T02:54:10.947Z,96.90
2023-01-04T02:57:01.008Z,97.23
2023-01-04T02:59:43.310Z,97.12
2023-01-04T03:02:34.505Z,97.27
2023-01-04T03:05:40.148Z,97.20
2023-01-04T03:08:42.364Z,97.20
2023-01-04T03:11:31.698Z,97.07
2023-01-04T03:14:00.808Z,97.20
2023-01-04T03:16:28.722Z,97.20
2023-01-04T03:18:57.507Z,97.26
2023-01-04T03:21:25.278Z,97.33
2023-01-04T03:24:13.900Z,97.56
2023-01-04T03:27:05.287Z,97.40
2023-01-04T03:29:54.129Z,97.72
2023-01-04T03:32:43.204Z,97.76
2023-01-04T03:35:28.274Z,98.00
2023-01-04T03:38:32.538Z,97.87
2023-01-04T03:41:22.666Z,98.08
2023-01-04T03:44:20.977Z,98.15
2023-01-04T03:47:08.470Z,98.23
2023-01-04T03:49:44.311Z,98.49
2023-01-04T03:52:12.962Z,98.44
2023-01-04T03:54:42.060Z,98.71
2023-01-04T03:57:09.526Z,98.59
2023-01-04T03:59:39.413Z,98.64
2023-01-04T04:02:08.445Z,99.01
2023-01-04T04:04:53.688Z,98.85
2023-01-04T04:07:38.703Z,99.06
2023-01-04T04:10:05.415Z,99.36
2023-01-04T04:12:31.859Z,99.51
2023-01-04T04:14:58.379Z,99.24
2023-01-04T04:17:24.870Z,99.51
2023-01-04T04:19:51.398Z,99.39
2023-01-04T04:22:17.843Z,99.60
2023-01-04T04:24:44.332Z,99.83
2023-01-04T04:27:10.940Z,100.00
2023-01-04T04:29:37.487Z,100.00
2023-01-04T04:32:04.136Z,100.00
2023-01-04T04:34:30.678Z,100.00
2023-01-04T04:37:06.625Z,100.00
2023-01-04T04:39:33.148Z,100.00
2023-01-04T04:41:59.631Z,100.00
2023-01-04T04:44:26.164Z,100.00
2023-01-04T04:46:52.717Z,100.00
2023-01-04T04:49:19.177Z,100.00
2023-01-04T04:51:45.810Z,99.69
2023-01-04T04:54:15.748Z,99.61
2023-01-04T04:56:42.225Z,99.58
2023-01-04T04:59:08.723Z,99.69
2023-01-04T05:01:35.415Z,99.71
2023-01-04T05:04:02.056Z,99.65
2023-01-04T05:06:28.574Z,100.00
2023-01-04T05:08:55.108Z,100.00
2023-01-04T05:11:41.679Z,100.00
2023-01-04T05:14:08.559Z,100.00
2023-01-04T05:16:35.382Z,100.00
2023-01-04T05:19:02.075Z,100.00
2023-01-04T05:21:28.530Z,100.00
2023-01-04T05:23:54.980Z,100.00
2023-01-04T05:26:22.008Z,100.00
2023-01-04T05:28:53.465Z,100.00
2023-01-04T05:31:20.762Z,100.00
2023-01-04T05:33:47.257Z,100.00
2023-01-04T05:36:13.725Z,100.00
2023-01-04T05:38:40.307Z,100.00
2023-01-04T05:41:29.815Z,100.00
2023-01-04T05:43:56.491Z,100.00
2023-01-04T05:46:23.370Z,100.00
2023-01-04T05:48:49.928Z,100.00
2023-01-04T05:51:16.500Z,100.00
2023-01-04T05:53:43.018Z,100.00
2023-01-04T05:56:09.585Z,100.00
2023-01-04T05:58:36.044Z,100.00
2023-01-04T06:01:02.579Z,100.00
2023-01-04T06:03:29.180Z,100.00
2023-01-04T06:05:55.785Z,100.00
2023-01-04T06:08:22.328Z,100.00
2023-01-04T06:10:54.872Z,100.00
2023-01-04T06:13:21.569Z,100.00
2023-01-04T06:15:48.082Z,100.00
2023-01-04T06:18:14.651Z,100.00
2023-01-04T06:20:42.733Z,100.00
2023-01-04T06:23:09.285Z,100.00
2023-01-04T06:25:35.809Z,100.00
2023-01-04T06:28:02.284Z,100.00
2023-01-04T06:30:29.285Z,100.00
2023-01-04T06:32:55.872Z,100.00
2023-01-04T06:35:22.500Z,100.00
2023-01-04T06:37:48.953Z,100.00
2023-01-04T06:40:15.419Z,100.00
2023-01-04T06:42:44.688Z,100.00
2023-01-04T06:45:11.583Z,100.00
2023-01-04T06:47:38.289Z,100.00
2023-01-04T06:50:05.182Z,100.00
2023-01-04T06:52:31.666Z,100.00
2023-01-04T06:54:58.191Z,100.00
2023-01-04T06:57:24.681Z,100.00
2023-01-04T06:59:51.348Z,100.00
2023-01-04T07:02:17.977Z,100.00
2023-01-04T07:04:44.582Z,100.00
2023-01-04T07:07:11.497Z,100.00
2023-01-04T07:09:38.650Z,100.00
2023-01-04T07:12:05.482Z,100.00
2023-01-04T07:14:31.978Z,100.00
2023-01-04T07:16:58.534Z,100.00
2023-01-04T07:19:25.187Z,100.00
2023-01-04T07:21:52.171Z,100.00
2023-01-04T07:24:18.740Z,100.00
2023-01-04T07:26:45.219Z,100.00
2023-01-04T07:29:20.177Z,100.00
2023-01-04T07:31:48.412Z,100.00
2023-01-04T07:34:15.811Z,100.00
2023-01-04T07:36:42.421Z,100.00
2023-01-04T07:39:12.800Z,100.00
2023-01-04T07:41:41.125Z,100.00
2023-01-04T07:44:08.395Z,100.00
2023-01-04T07:46:35.249Z,100.00
2023-01-04T07:49:02.011Z,100.00
2023-01-04T07:51:29.617Z,100.00
2023-01-04T07:53:56.180Z,100.00
2023-01-04T07:56:22.708Z,100.00
2023-01-04T07:58:49.350Z,99.99
2023-01-04T08:01:17.521Z,99.96
2023-01-04T08:03:47.588Z,100.00
2023-01-04T08:06:15.127Z,100.00
2023-01-04T08:08:42.103Z,100.00
2023-01-04T08:11:10.799Z,100.00
2023-01-04T08:13:37.385Z,100.00
2023-01-04T08:16:04.084Z,100.00
2023-01-04T08:18:30.818Z,100.00
2023-01-04T08:21:05.147Z,100.00
2023-01-04T08:23:31.935Z,100.00
2023-01-04T08:26:04.955Z,99.93
2023-01-04T08:28:31.936Z,99.76
2023-01-04T08:30:58.595Z,99.79
2023-01-04T08:33:25.525Z,99.53
2023-01-04T08:35:52.841Z,99.45
2023-01-04T08:38:58.086Z,99.55
2023-01-04T08:41:31.360Z,99.57
2023-01-04T08:43:57.110Z,99.73
2023-01-04T08:46:24.122Z,99.80
2023-01-04T08:48:57.412Z,99.76
2023-01-04T08:51:24.419Z,100.00
2023-01-04T08:53:51.309Z,99.95
2023-01-04T08:56:17.796Z,100.00
2023-01-04T08:58:44.288Z,100.00
2023-01-04T09:01:11.532Z,100.00
2023-01-04T09:03:38.641Z,100.00
2023-01-04T09:06:06.455Z,100.00
2023-01-04T09:08:33.675Z,100.00
2023-01-04T09:11:04.525Z,100.00
2023-01-04T09:13:31.267Z,100.00
2023-01-04T09:16:00.158Z,100.00
2023-01-04T09:18:33.737Z,100.00
2023-01-04T09:21:03.548Z,100.00
2023-01-04T09:23:30.830Z,100.00
2023-01-04T09:25:57.301Z,99.96
2023-01-04T09:28:23.810Z,99.63
2023-01-04T09:30:54.434Z,99.40
2023-01-04T09:33:20.954Z,99.21
2023-01-04T09:35:47.674Z,99.23
2023-01-04T09:38:14.121Z,99.61
2023-01-04T09:41:01.019Z,99.47
2023-01-04T09:43:31.750Z,99.41
2023-01-04T09:46:03.884Z,99.24
2023-01-04T09:48:32.732Z,99.06
2023-01-04T09:51:12.054Z,98.82
2023-01-04T09:53:43.191Z,98.66
2023-01-04T09:56:39.102Z,98.87
2023-01-04T09:59:14.400Z,98.74
2023-01-04T10:01:41.183Z,98.73
2023-01-04T10:04:13.810Z,98.60
2023-01-04T10:06:40.374Z,98.34
2023-01-04T10:09:10.248Z,98.20
2023-01-04T10:11:48.829Z,98.06
2023-01-04T10:14:34.243Z,98.06
2023-01-04T10:17:14.377Z,97.77
2023-01-04T10:22:46.518Z,98.04
2023-01-04T10:25:15.797Z,98.25
2023-01-04T10:27:49.279Z,98.43
2023-01-04T10:30:27.922Z,98.56
2023-01-04T10:33:10.192Z,98.58
2023-01-04T10:35:37.046Z,98.98
2023-01-04T10:38:04.700Z,99.01
2023-01-04T10:40:35.299Z,99.18
2023-01-04T10:43:07.270Z,99.04
2023-01-04T10:45:33.974Z,99.20
2023-01-04T10:48:12.999Z,99.09
2023-01-04T10:50:55.553Z,99.35
2023-01-04T10:53:24.799Z,99.29
2023-01-04T10:56:25.209Z,99.05
2023-01-04T10:58:50.062Z,99.01
2023-01-04T11:01:30.020Z,98.79
2023-01-04T11:04:07.369Z,98.71
2023-01-04T11:06:48.284Z,98.82
2023-01-04T11:09:18.412Z,98.82
2023-01-04T11:11:51.055Z,98.89
2023-01-04T11:14:17.653Z,99.03
2023-01-04T11:16:46.491Z,98.85
2023-01-04T11:19:13.387Z,99.08
2023-01-04T11:21:42.764Z,98.78
2023-01-04T11:26:59.909Z,99.25
2023-01-04T11:29:35.371Z,99.24
2023-01-04T11:32:22.189Z,99.44
2023-01-04T11:34:53.407Z,99.30
2023-01-04T11:37:33.696Z,99.36
2023-01-04T11:40:18.488Z,99.43
2023-01-04T11:42:45.308Z,99.17
2023-01-04T11:45:30.010Z,99.22
2023-01-04T11:47:57.599Z,99.29
2023-01-04T11:50:35.089Z,99.25
2023-01-04T11:53:02.190Z,99.38
2023-01-04T11:55:30.024Z,99.47
2023-01-04T11:58:16.443Z,99.28
2023-01-04T12:00:53.657Z,99.45
2023-01-04T12:03:35.072Z,99.58
2023-01-04T12:06:02.828Z,99.62
2023-01-04T12:08:31.615Z,99.18
2023-01-04T12:10:59.438Z,99.15
2023-01-04T12:13:26.159Z,98.75
2023-01-04T12:15:52.664Z,98.39
2023-01-04T12:18:35.813Z,98.03
2023-01-04T12:21:03.556Z,97.47
2023-01-04T12:23:30.324Z,97.46
2023-01-04T12:25:57.255Z,97.11
2023-01-04T12:28:30.740Z,96.89
2023-01-04T12:31:19.424Z,97.11
2023-01-04T12:33:59.048Z,97.47
2023-01-04T12:36:37.780Z,97.87
2023-01-04T12:39:16.465Z,97.26
2023-01-04T12:42:00.805Z,96.75
2023-01-04T12:44:37.081Z,96.04
2023-01-04T12:47:23.202Z,95.81
2023-01-04T12:49:52.292Z,95.54
2023-01-04T12:52:32.328Z,95.19
2023-01-04T12:55:23.704Z,95.28
2023-01-04T12:57:50.375Z,95.01
2023-01-04T13:00:17.032Z,94.98
2023-01-04T13:02:52.959Z,95.09
2023-01-04T13:08:11.247Z,95.50
2023-01-04T13:10:46.819Z,95.58
2023-01-04T13:13:32.050Z,95.64
2023-01-04T13:16:13.941Z,95.87
2023-01-04T13:18:40.545Z,96.33
2023-01-04T13:21:10.430Z,96.54
2023-01-04T13:23:37.993Z,96.67
2023-01-04T13:26:24.665Z,96.68
2023-01-04T13:29:04.909Z,96.69
2023-01-04T13:31:31.436Z,96.46
2023-01-04T13:33:58.338Z,96.41
2023-01-04T13:36:24.866Z,96.49
2023-01-04T13:38:51.352Z,96.61
2023-01-04T13:41:22.222Z,96.66
2023-01-04T13:43:57.765Z,96.58
2023-01-04T13:46:26.805Z,96.60
2023-01-04T13:48:58.246Z,96.66
2023-01-04T13:51:30.594Z,96.58
2023-01-04T13:54:03.406Z,96.70
2023-01-04T13:56:32.018Z,96.76
2023-01-04T13:58:58.881Z,96.55
2023-01-04T14:01:25.476Z,96.86
2023-01-04T14:03:55.485Z,96.90
2023-01-04T14:06:48.176Z,96.90
2023-01-04T14:09:17.347Z,97.07
2023-01-04T14:12:08.350Z,97.26
2023-01-04T14:14:50.746Z,97.32
2023-01-04T14:17:17.309Z,97.47
2023-01-04T14:19:54.278Z,97.73
2023-01-04T14:22:20.832Z,97.94
2023-01-04T14:27:34.722Z,98.02
2023-01-04T14:30:13.724Z,98.16
2023-01-04T14:32:40.485Z,98.17
2023-01-04T14:35:12.751Z,98.10
2023-01-04T14:37:39.531Z,98.46
2023-01-04T14:40:15.777Z,98.74
2023-01-04T14:42:42.328Z,99.12
2023-01-04T14:45:12.903Z,99.39
2023-01-04T14:47:39.417Z,99.58
2023-01-04T14:50:06.010Z,99.71
2023-01-04T14:52:32.505Z,99.72
2023-01-04T14:54:59.382Z,100.00
2023-01-04T14:57:25.939Z,100.00
2023-01-04T14:59:52.415Z,100.00
2023-01-04T15:02:19.773Z,100.00
2023-01-04T15:04:46.388Z,100.00
2023-01-04T15:07:35.871Z,100.00
2023-01-04T15:10:03.454Z,100.00
2023-01-04T15:12:30.015Z,100.00
2023-01-04T15:14:56.529Z,100.00
2023-01-04T15:17:23.048Z,100.00
2023-01-04T15:19:49.652Z,100.00
2023-01-04T15:22:23.573Z,100.00
2023-01-04T15:24:50.129Z,100.00
2023-01-04T15:27:21.622Z,100.00
2023-01-04T15:29:50.230Z,100.00
2023-01-04T15:32:16.753Z,100.00
2023-01-04T15:34:46.773Z,100.00
2023-01-04T15:37:18.434Z,100.00
2023-01-04T15:39:48.471Z,100.00
2023-01-04T15:42:35.914Z,100.00
2023-01-04T15:45:14.475Z,100.00
2023-01-04T15:47:40.968Z,100.00
2023-01-04T15:50:07.691Z,100.00
2023-01-04T15:52:34.169Z,100.00
2023-01-04T15:55:00.725Z,100.00
2023-01-04T15:57:27.184Z,100.00
2023-01-04T15:59:53.668Z,100.00
2023-01-04T16:02:20.357Z,100.00
2023-01-04T16:04:50.524Z,100.00
2023-01-04T16:07:17.242Z,100.00
2023-01-04T16:09:43.897Z,100.00
2023-01-04T16:12:39.725Z,100.00
2023-01-04T16:15:09.219Z,100.00
2023-01-04T16:17:35.725Z,100.00
2023-01-04T16:20:02.449Z,100.00
2023-01-04T16:22:28.974Z,100.00
2023-01-04T16:25:11.930Z,100.00
2023-01-04T16:27:39.473Z,100.00
2023-01-04T16:30:07.606Z,100.00
2023-01-04T16:32:34.660Z,100.00
2023-01-04T16:35:01.345Z,100.00
2023-01-04T16:37:28.605Z,100.00
2023-01-04T16:40:10.614Z,100.00
2023-01-04T16:42:37.970Z,100.00
2023-01-04T16:45:05.216Z,100.00
2023-01-04T16:47:39.173Z,100.00
2023-01-04T16:50:06.760Z,100.00
2023-01-04T16:52:33.272Z,100.00
2023-01-04T16:54:59.710Z,100.00
2023-01-04T16:57:26.613Z,100.00
2023-01-04T16:59:53.146Z,100.00
2023-01-04T17:02:20.162Z,100.00
2023-01-04T17:04:51.500Z,100.00
2023-01-04T17:07:18.093Z,100.00
2023-01-04T17:09:44.552Z,100.00
2023-01-04T17:12:45.649Z,100.00
2023-01-04T17:17:44.037Z,100.00
2023-01-04T17:20:11.010Z,100.00
2023-01-04T17:22:37.523Z,100.00
2023-01-04T17:25:04.854Z,100.00
2023-01-04T17:27:31.437Z,100.00
2023-01-04T17:29:57.957Z,100.00
2023-01-04T17:32:27.020Z,100.00
2023-01-04T17:34:53.570Z,100.00
2023-01-04T17:37:20.116Z,100.00
2023-01-04T17:39:53.547Z,100.00
2023-01-04T17:42:21.335Z,100.00
2023-01-04T17:44:49.549Z,100.00
2023-01-04T17:47:16.040Z,100.00
2023-01-04T17:49:42.551Z,100.00
2023-01-04T17:52:09.835Z,100.00
2023-01-04T17:54:38.252Z,100.00
2023-01-04T17:57:04.808Z,100.00
2023-01-04T17:59:31.309Z,100.00
2023-01-04T18:01:58.009Z,100.00
2023-01-04T18:04:24.635Z,100.00
2023-01-04T18:06:51.054Z,100.00
2023-01-04T18:09:24.197Z,100.00
2023-01-04T18:11:51.135Z,100.00
2023-01-04T18:14:17.675Z,100.00
2023-01-04T18:16:57.145Z,100.00
2023-01-04T18:19:28.393Z,100.00
2023-01-04T18:21:55.183Z,100.00
2023-01-04T18:24:38.565Z,100.00
2023-01-04T18:27:21.485Z,100.00
2023-01-04T18:29:48.918Z,100.00
2023-01-04T18:32:15.489Z,100.00
2023-01-04T18:34:42.030Z,100.00
2023-01-04T18:37:08.576Z,100.00
2023-01-04T18:39:35.122Z,100.00
2023-01-04T18:42:01.701Z,100.00
2023-01-04T18:44:33.482Z,100.00
2023-01-04T18:47:01.280Z,100.00
2023-01-04T18:49:27.819Z,100.00
2023-01-04T18:51:54.387Z,100.00
2023-01-04T18:54:21.759Z,100.00
2023-01-04T18:56:48.819Z,100.00
2023-01-04T18:59:17.508Z,100.00
2023-01-04T19:01:45.519Z,100.00
2023-01-04T19:04:12.823Z,100.00
2023-01-04T19:06:40.441Z,100.00
2023-01-04T19:09:08.382Z,100.00
2023-01-04T19:11:35.937Z,100.00
2023-01-04T19:14:03.021Z,100.00
2023-01-04T19:16:31.345Z,100.00
2023-01-04T19:18:59.481Z,100.00
2023-01-04T19:21:26.313Z,100.00
2023-01-04T19:23:52.907Z,100.00
2023-01-04T19:26:19.540Z,100.00
2023-01-04T19:28:46.041Z,100.00
2023-01-04T19:31:13.146Z,100.00
2023-01-04T19:33:40.301Z,100.00
2023-01-04T19:36:10.277Z,100.00
2023-01-04T19:38:37.623Z,100.00
2023-01-04T19:41:04.960Z,100.00
2023-01-04T19:43:31.498Z,100.00
2023-01-04T19:45:58.207Z,100.00
2023-01-04T19:48:24.728Z,100.00
2023-01-04T19:51:03.197Z,100.00
2023-01-04T19:53:29.703Z,100.00
2023-01-04T19:55:56.544Z,100.00
2023-01-04T19:58:23.057Z,100.00
2023-01-04T20:00:54.568Z,100.00
2023-01-04T20:03:26.142Z,100.00
2023-01-04T20:05:52.781Z,100.00
2023-01-04T20:08:19.338Z,100.00
2023-01-04T20:10:45.889Z,100.00
2023-01-04T20:13:20.443Z,100.00
2023-01-04T20:15:46.943Z,100.00
2023-01-04T20:18:14.373Z,100.00
2023-01-04T20:20:42.170Z,100.00
2023-01-04T20:23:09.838Z,100.00
2023-01-04T20:25:40.651Z,100.00
2023-01-04T20:28:07.198Z,100.00
2023-01-04T20:30:33.932Z,100.00
2023-01-04T20:33:00.583Z,100.00
2023-01-04T20:35:30.723Z,100.00
2023-01-04T20:37:57.882Z,100.00
2023-01-04T20:40:25.144Z,100.00
2023-01-04T20:43:10.027Z,100.00
2023-01-04T20:45:43.834Z,100.00
2023-01-04T20:48:10.534Z,100.00
2023-01-04T20:50:37.001Z,100.00
2023-01-04T20:53:03.968Z,100.00
2023-01-04T20:55:30.417Z,100.00
2023-01-04T20:57:56.943Z,100.00
2023-01-04T21:00:23.455Z,100.00
2023-01-04T21:02:50.097Z,100.00
2023-01-04T21:05:16.946Z,100.00
2023-01-04T21:07:43.485Z,100.00
2023-01-04T21:10:09.954Z,100.00
2023-01-04T21:12:38.433Z,100.00
2023-01-04T21:15:05.105Z,100.00
2023-01-04T21:17:31.635Z,100.00
2023-01-04T21:19:58.144Z,100.00
2023-01-04T21:22:25.972Z,100.00
2023-01-04T21:24:52.468Z,100.00
2023-01-04T21:27:18.964Z,100.00
2023-01-04T21:29:45.415Z,100.00
2023-01-04T21:32:12.012Z,100.00
2023-01-04T21:34:38.482Z,100.00
2023-01-04T21:37:04.925Z,100.00
2023-01-04T21:39:31.463Z,100.00
2023-01-04T21:41:58.014Z,100.00
2023-01-04T21:44:24.508Z,100.00
2023-01-04T21:46:51.136Z,100.00
2023-01-04T21:49:17.709Z,100.00
2023-01-04T21:51:44.180Z,100.00
2023-01-04T21:54:10.750Z,100.00
2023-01-04T21:56:37.243Z,100.00
2023-01-04T21:59:03.735Z,100.00
2023-01-04T22:01:34.764Z,100.00
2023-01-04T22:04:02.292Z,100.00
2023-01-04T22:06:29.302Z,100.00
2023-01-04T22:08:56.059Z,100.00
2023-01-04T22:11:22.614Z,100.00
2023-01-04T22:13:50.367Z,100.00
2023-01-04T22:16:17.464Z,100.00
2023-01-04T22:18:50.130Z,100.00
2023-01-04T22:21:18.296Z,100.00
2023-01-04T22:23:44.835Z,100.00
2023-01-04T22:26:11.772Z,100.00
2023-01-04T22:28:38.888Z,100.00
2023-01-04T22:31:06.883Z,100.00
2023-01-04T22:33:35.056Z,100.00
2023-01-04T22:36:08.279Z,100.00
2023-01-04T22:38:35.846Z,100.00
2023-01-04T22:41:06.297Z,100.00
2023-01-04T22:43:32.885Z,100.00
2023-01-04T22:46:00.528Z,100.00
2023-01-04T22:48:27.171Z,100.00
2023-01-04T22:50:53.656Z,100.00
2023-01-04T22:53:20.350Z,100.00
2023-01-04T22:56:17.845Z,100.00
2023-01-04T22:58:34.370Z,100.00
2023-01-04T23:01:00.970Z,100.00
2023-01-04T23:03:27.474Z,100.00
2023-01-04T23:05:54.120Z,100.00
2023-01-04T23:08:20.599Z,100.00
2023-01-04T23:10:47.038Z,100.00
2023-01-04T23:13:13.572Z,100.00
2023-01-04T23:15:40.137Z,100.00
2023-01-04T23:18:06.618Z,100.00
2023-01-04T23:20:33.184Z,100.00
2023-01-04T23:22:59.655Z,100.00
2023-01-04T23:25:26.112Z,100.00
2023-01-04T23:27:52.662Z,100.00
2023-01-04T23:30:19.152Z,100.00
2023-01-04T23:32:45.636Z,100.00
2023-01-04T23:35:12.113Z,100.00
2023-01-04T23:37:38.670Z,100.00
2023-01-04T23:40:05.572Z,100.00
2023-01-04T23:42:32.361Z,100.00
2023-01-04T23:44:58.877Z,100.00
2023-01-04T23:47:25.324Z,100.00
2023-01-04T23:49:51.853Z,100.00
2023-01-04T23:52:18.328Z,100.00
2023-01-04T23:54:44.975Z,100.00
2023-01-04T23:57:11.619Z,100.00
2023-01-04T23:59:38.159Z,100.00
